sensor_id;sensor_type;location;lat;lon;timestamp;P1;durP1;ratioP1;P2;durP2;ratioP2
46561;SDS011;32289;42.688;23.330;2022-10-16T00:06:20;11.20;;;4.88;;
46561;SDS011;32289;42.688;23.330;2022-10-16T00:10:01;10.27;;;4.80;;
46561;SDS011;32289;42.688;23.330;2022-10-16T00:13:42;11.40;;;4.85;;
46561;SDS011;32289;42.688;23.330;2022-10-16T00:17:25;8.95;;;4.78;;
46561;SDS011;32289;42.688;23.330;2022-10-16T00:21:07;9.27;;;5.05;;
46561;SDS011;32289;42.688;23.330;2022-10-16T00:24:49;13.45;;;5.43;;
46561;SDS011;32289;42.688;23.330;2022-10-16T00:28:30;14.65;;;4.90;;
46561;SDS011;32289;42.688;23.330;2022-10-16T00:32:12;12.45;;;4.88;;
46561;SDS011;32289;42.688;23.330;2022-10-16T00:35:52;12.93;;;5.07;;
46561;SDS011;32289;42.688;23.330;2022-10-16T00:39:33;11.90;;;5.93;;
46561;SDS011;32289;42.688;23.330;2022-10-16T00:43:32;8.60;;;4.90;;
46561;SDS011;32289;42.688;23.330;2022-10-16T00:47:19;11.27;;;4.97;;
46561;SDS011;32289;42.688;23.330;2022-10-16T00:51:04;11.63;;;5.10;;
46561;SDS011;32289;42.688;23.330;2022-10-16T00:54:47;12.65;;;5.47;;
46561;SDS011;32289;42.688;23.330;2022-10-16T00:58:30;10.27;;;5.15;;
46561;SDS011;32289;42.688;23.330;2022-10-16T01:02:14;10.10;;;4.80;;
46561;SDS011;32289;42.688;23.330;2022-10-16T01:06:18;10.88;;;4.70;;
46561;SDS011;32289;42.688;23.330;2022-10-16T01:14:22;8.93;;;4.65;;
46561;SDS011;32289;42.688;23.330;2022-10-16T01:21:54;12.35;;;5.45;;
46561;SDS011;32289;42.688;23.330;2022-10-16T01:33:43;10.13;;;5.60;;
46561;SDS011;32289;42.688;23.330;2022-10-16T01:37:38;11.52;;;5.88;;
46561;SDS011;32289;42.688;23.330;2022-10-16T01:41:26;13.13;;;6.20;;
46561;SDS011;32289;42.688;23.330;2022-10-16T01:45:13;10.15;;;5.15;;
46561;SDS011;32289;42.688;23.330;2022-10-16T01:48:59;10.38;;;6.07;;
46561;SDS011;32289;42.688;23.330;2022-10-16T01:52:43;9.82;;;5.60;;
46561;SDS011;32289;42.688;23.330;2022-10-16T01:56:27;8.93;;;5.40;;
46561;SDS011;32289;42.688;23.330;2022-10-16T02:00:10;15.70;;;5.88;;
46561;SDS011;32289;42.688;23.330;2022-10-16T02:03:54;15.10;;;5.03;;
46561;SDS011;32289;42.688;23.330;2022-10-16T02:07:38;14.85;;;5.85;;
46561;SDS011;32289;42.688;23.330;2022-10-16T02:11:21;9.68;;;5.47;;
46561;SDS011;32289;42.688;23.330;2022-10-16T02:15:02;12.32;;;5.65;;
46561;SDS011;32289;42.688;23.330;2022-10-16T02:18:43;8.98;;;5.30;;
46561;SDS011;32289;42.688;23.330;2022-10-16T02:22:26;11.70;;;5.18;;
46561;SDS011;32289;42.688;23.330;2022-10-16T02:26:12;10.95;;;5.80;;
46561;SDS011;32289;42.688;23.330;2022-10-16T02:29:59;11.05;;;5.22;;
46561;SDS011;32289;42.688;23.330;2022-10-16T02:34:00;16.42;;;5.20;;
46561;SDS011;32289;42.688;23.330;2022-10-16T02:37:45;8.10;;;4.55;;
46561;SDS011;32289;42.688;23.330;2022-10-16T02:41:27;9.60;;;4.75;;
46561;SDS011;32289;42.688;23.330;2022-10-16T02:45:09;9.70;;;5.35;;
46561;SDS011;32289;42.688;23.330;2022-10-16T02:48:51;10.65;;;4.60;;
46561;SDS011;32289;42.688;23.330;2022-10-16T02:52:31;8.57;;;4.45;;
46561;SDS011;32289;42.688;23.330;2022-10-16T02:56:12;11.02;;;5.65;;
46561;SDS011;32289;42.688;23.330;2022-10-16T02:59:53;12.35;;;4.95;;
46561;SDS011;32289;42.688;23.330;2022-10-16T03:03:34;9.65;;;4.30;;
46561;SDS011;32289;42.688;23.330;2022-10-16T03:07:14;7.30;;;3.70;;
46561;SDS011;32289;42.688;23.330;2022-10-16T03:10:55;9.25;;;4.78;;
46561;SDS011;32289;42.688;23.330;2022-10-16T03:14:36;8.45;;;4.15;;
46561;SDS011;32289;42.688;23.330;2022-10-16T03:18:16;5.57;;;3.03;;
46561;SDS011;32289;42.688;23.330;2022-10-16T03:21:57;6.72;;;3.45;;
46561;SDS011;32289;42.688;23.330;2022-10-16T03:25:38;8.80;;;4.28;;
46561;SDS011;32289;42.688;23.330;2022-10-16T03:29:19;8.02;;;3.97;;
46561;SDS011;32289;42.688;23.330;2022-10-16T03:33:00;6.60;;;3.83;;
46561;SDS011;32289;42.688;23.330;2022-10-16T03:36:40;8.25;;;3.65;;
46561;SDS011;32289;42.688;23.330;2022-10-16T03:40:21;13.15;;;4.32;;
46561;SDS011;32289;42.688;23.330;2022-10-16T03:44:02;5.57;;;3.53;;
46561;SDS011;32289;42.688;23.330;2022-10-16T03:47:42;6.47;;;3.75;;
46561;SDS011;32289;42.688;23.330;2022-10-16T03:51:23;8.52;;;3.45;;
46561;SDS011;32289;42.688;23.330;2022-10-16T03:55:04;7.45;;;3.92;;
46561;SDS011;32289;42.688;23.330;2022-10-16T03:58:45;8.07;;;3.95;;
46561;SDS011;32289;42.688;23.330;2022-10-16T04:02:26;7.45;;;3.80;;
46561;SDS011;32289;42.688;23.330;2022-10-16T04:06:07;8.15;;;3.35;;
46561;SDS011;32289;42.688;23.330;2022-10-16T04:09:48;9.82;;;3.60;;
46561;SDS011;32289;42.688;23.330;2022-10-16T04:13:32;9.85;;;4.57;;
46561;SDS011;32289;42.688;23.330;2022-10-16T04:17:12;7.82;;;3.45;;
46561;SDS011;32289;42.688;23.330;2022-10-16T04:20:53;5.25;;;3.25;;
46561;SDS011;32289;42.688;23.330;2022-10-16T04:24:34;5.85;;;3.42;;
46561;SDS011;32289;42.688;23.330;2022-10-16T04:28:15;7.45;;;4.13;;
46561;SDS011;32289;42.688;23.330;2022-10-16T04:31:56;10.05;;;4.15;;
46561;SDS011;32289;42.688;23.330;2022-10-16T04:35:36;11.73;;;3.97;;
46561;SDS011;32289;42.688;23.330;2022-10-16T04:39:17;6.20;;;2.60;;
46561;SDS011;32289;42.688;23.330;2022-10-16T04:42:58;5.10;;;3.38;;
46561;SDS011;32289;42.688;23.330;2022-10-16T04:46:39;13.02;;;3.65;;
46561;SDS011;32289;42.688;23.330;2022-10-16T04:50:20;5.72;;;3.13;;
46561;SDS011;32289;42.688;23.330;2022-10-16T04:54:01;10.05;;;3.40;;
46561;SDS011;32289;42.688;23.330;2022-10-16T04:57:43;7.03;;;3.42;;
46561;SDS011;32289;42.688;23.330;2022-10-16T05:01:23;8.70;;;4.72;;
46561;SDS011;32289;42.688;23.330;2022-10-16T05:05:04;5.88;;;3.50;;
46561;SDS011;32289;42.688;23.330;2022-10-16T05:08:45;8.38;;;4.30;;
46561;SDS011;32289;42.688;23.330;2022-10-16T05:12:26;14.88;;;4.05;;
46561;SDS011;32289;42.688;23.330;2022-10-16T05:16:07;10.90;;;3.83;;
46561;SDS011;32289;42.688;23.330;2022-10-16T05:19:47;13.15;;;3.80;;
46561;SDS011;32289;42.688;23.330;2022-10-16T05:23:28;5.85;;;3.45;;
46561;SDS011;32289;42.688;23.330;2022-10-16T05:27:09;9.38;;;3.65;;
46561;SDS011;32289;42.688;23.330;2022-10-16T05:30:50;11.73;;;3.95;;
46561;SDS011;32289;42.688;23.330;2022-10-16T05:34:31;8.18;;;3.97;;
46561;SDS011;32289;42.688;23.330;2022-10-16T05:38:12;11.25;;;4.50;;
46561;SDS011;32289;42.688;23.330;2022-10-16T05:41:53;7.68;;;4.30;;
46561;SDS011;32289;42.688;23.330;2022-10-16T05:45:33;8.88;;;4.65;;
46561;SDS011;32289;42.688;23.330;2022-10-16T05:49:14;6.53;;;4.22;;
46561;SDS011;32289;42.688;23.330;2022-10-16T05:52:55;10.80;;;4.95;;
46561;SDS011;32289;42.688;23.330;2022-10-16T05:56:37;7.20;;;4.35;;
46561;SDS011;32289;42.688;23.330;2022-10-16T06:00:17;11.50;;;4.97;;
46561;SDS011;32289;42.688;23.330;2022-10-16T06:03:58;15.10;;;7.38;;
46561;SDS011;32289;42.688;23.330;2022-10-16T06:07:39;10.70;;;5.30;;
46561;SDS011;32289;42.688;23.330;2022-10-16T06:11:22;9.38;;;5.13;;
46561;SDS011;32289;42.688;23.330;2022-10-16T06:15:05;10.48;;;5.15;;
46561;SDS011;32289;42.688;23.330;2022-10-16T06:18:46;8.02;;;4.57;;
46561;SDS011;32289;42.688;23.330;2022-10-16T06:22:27;11.52;;;4.93;;
46561;SDS011;32289;42.688;23.330;2022-10-16T06:26:15;11.38;;;5.57;;
46561;SDS011;32289;42.688;23.330;2022-10-16T06:30:00;10.85;;;5.57;;
46561;SDS011;32289;42.688;23.330;2022-10-16T06:33:41;18.40;;;6.13;;
46561;SDS011;32289;42.688;23.330;2022-10-16T06:37:22;10.82;;;5.70;;
46561;SDS011;32289;42.688;23.330;2022-10-16T06:41:03;8.75;;;5.07;;
46561;SDS011;32289;42.688;23.330;2022-10-16T06:44:45;12.27;;;6.20;;
46561;SDS011;32289;42.688;23.330;2022-10-16T06:48:27;11.98;;;5.85;;
46561;SDS011;32289;42.688;23.330;2022-10-16T06:52:08;14.63;;;6.22;;
46561;SDS011;32289;42.688;23.330;2022-10-16T06:55:49;19.58;;;6.53;;
46561;SDS011;32289;42.688;23.330;2022-10-16T06:59:30;12.60;;;6.30;;
46561;SDS011;32289;42.688;23.330;2022-10-16T07:03:11;23.80;;;9.23;;
46561;SDS011;32289;42.688;23.330;2022-10-16T07:06:52;13.63;;;6.72;;
46561;SDS011;32289;42.688;23.330;2022-10-16T07:10:33;21.30;;;6.38;;
46561;SDS011;32289;42.688;23.330;2022-10-16T07:14:17;9.75;;;6.00;;
46561;SDS011;32289;42.688;23.330;2022-10-16T07:17:59;12.20;;;5.43;;
46561;SDS011;32289;42.688;23.330;2022-10-16T07:21:40;11.05;;;6.07;;
46561;SDS011;32289;42.688;23.330;2022-10-16T07:25:22;16.38;;;6.38;;
46561;SDS011;32289;42.688;23.330;2022-10-16T07:29:03;9.80;;;5.40;;
46561;SDS011;32289;42.688;23.330;2022-10-16T07:32:51;9.80;;;5.15;;
46561;SDS011;32289;42.688;23.330;2022-10-16T07:36:31;8.60;;;4.60;;
46561;SDS011;32289;42.688;23.330;2022-10-16T07:40:12;7.45;;;4.47;;
46561;SDS011;32289;42.688;23.330;2022-10-16T07:43:53;9.82;;;4.32;;
46561;SDS011;32289;42.688;23.330;2022-10-16T07:47:36;8.15;;;4.72;;
46561;SDS011;32289;42.688;23.330;2022-10-16T07:51:17;6.68;;;4.50;;
46561;SDS011;32289;42.688;23.330;2022-10-16T07:55:00;4.90;;;3.30;;
46561;SDS011;32289;42.688;23.330;2022-10-16T07:58:40;6.72;;;3.72;;
46561;SDS011;32289;42.688;23.330;2022-10-16T08:02:21;8.02;;;3.83;;
46561;SDS011;32289;42.688;23.330;2022-10-16T08:06:02;6.13;;;3.60;;
46561;SDS011;32289;42.688;23.330;2022-10-16T08:09:44;6.22;;;3.70;;
46561;SDS011;32289;42.688;23.330;2022-10-16T08:13:24;5.57;;;3.58;;
46561;SDS011;32289;42.688;23.330;2022-10-16T08:17:06;5.60;;;3.42;;
46561;SDS011;32289;42.688;23.330;2022-10-16T08:20:47;5.82;;;3.20;;
46561;SDS011;32289;42.688;23.330;2022-10-16T08:24:27;9.18;;;2.88;;
46561;SDS011;32289;42.688;23.330;2022-10-16T08:28:10;5.70;;;2.75;;
46561;SDS011;32289;42.688;23.330;2022-10-16T08:31:51;7.95;;;2.95;;
46561;SDS011;32289;42.688;23.330;2022-10-16T08:35:32;4.95;;;3.70;;
46561;SDS011;32289;42.688;23.330;2022-10-16T08:39:13;5.93;;;3.10;;
46561;SDS011;32289;42.688;23.330;2022-10-16T08:47:14;4.82;;;2.97;;
46561;SDS011;32289;42.688;23.330;2022-10-16T08:51:23;4.30;;;2.20;;
46561;SDS011;32289;42.688;23.330;2022-10-16T08:55:31;4.65;;;2.58;;
46561;SDS011;32289;42.688;23.330;2022-10-16T08:59:13;4.82;;;2.20;;
46561;SDS011;32289;42.688;23.330;2022-10-16T09:10:34;3.65;;;1.90;;
46561;SDS011;32289;42.688;23.330;2022-10-16T09:18:38;3.47;;;1.98;;
46561;SDS011;32289;42.688;23.330;2022-10-16T09:22:23;4.20;;;2.20;;
46561;SDS011;32289;42.688;23.330;2022-10-16T09:26:10;4.95;;;1.90;;
46561;SDS011;32289;42.688;23.330;2022-10-16T09:29:55;6.57;;;2.80;;
46561;SDS011;32289;42.688;23.330;2022-10-16T09:33:36;5.43;;;1.83;;
46561;SDS011;32289;42.688;23.330;2022-10-16T09:37:20;3.65;;;2.03;;
46561;SDS011;32289;42.688;23.330;2022-10-16T09:41:08;4.80;;;2.28;;
46561;SDS011;32289;42.688;23.330;2022-10-16T09:44:57;4.97;;;1.92;;
46561;SDS011;32289;42.688;23.330;2022-10-16T09:48:44;4.60;;;2.33;;
46561;SDS011;32289;42.688;23.330;2022-10-16T09:52:28;3.10;;;1.80;;
46561;SDS011;32289;42.688;23.330;2022-10-16T09:56:10;2.42;;;1.73;;
46561;SDS011;32289;42.688;23.330;2022-10-16T09:59:54;3.70;;;1.60;;
46561;SDS011;32289;42.688;23.330;2022-10-16T10:03:37;4.30;;;2.30;;
46561;SDS011;32289;42.688;23.330;2022-10-16T10:07:23;3.30;;;1.88;;
46561;SDS011;32289;42.688;23.330;2022-10-16T10:11:12;4.80;;;2.08;;
46561;SDS011;32289;42.688;23.330;2022-10-16T10:14:54;3.13;;;1.70;;
46561;SDS011;32289;42.688;23.330;2022-10-16T10:18:37;3.90;;;1.70;;
46561;SDS011;32289;42.688;23.330;2022-10-16T10:22:31;3.78;;;2.03;;
46561;SDS011;32289;42.688;23.330;2022-10-16T10:26:17;3.38;;;2.08;;
46561;SDS011;32289;42.688;23.330;2022-10-16T10:34:37;3.53;;;2.10;;
46561;SDS011;32289;42.688;23.330;2022-10-16T10:38:39;3.50;;;2.10;;
46561;SDS011;32289;42.688;23.330;2022-10-16T10:42:36;4.90;;;1.83;;
46561;SDS011;32289;42.688;23.330;2022-10-16T10:54:26;2.97;;;1.80;;
46561;SDS011;32289;42.688;23.330;2022-10-16T11:02:35;2.53;;;1.63;;
46561;SDS011;32289;42.688;23.330;2022-10-16T11:06:32;4.32;;;2.58;;
46561;SDS011;32289;42.688;23.330;2022-10-16T11:10:24;4.10;;;2.00;;
46561;SDS011;32289;42.688;23.330;2022-10-16T11:18:06;3.65;;;2.22;;
46561;SDS011;32289;42.688;23.330;2022-10-16T11:21:59;4.47;;;1.90;;
46561;SDS011;32289;42.688;23.330;2022-10-16T11:25:44;4.15;;;1.83;;
46561;SDS011;32289;42.688;23.330;2022-10-16T11:29:27;3.47;;;1.80;;
46561;SDS011;32289;42.688;23.330;2022-10-16T11:33:19;4.35;;;2.10;;
46561;SDS011;32289;42.688;23.330;2022-10-16T11:37:11;3.90;;;1.90;;
46561;SDS011;32289;42.688;23.330;2022-10-16T11:41:21;4.20;;;2.13;;
46561;SDS011;32289;42.688;23.330;2022-10-16T11:49:19;3.72;;;2.35;;
46561;SDS011;32289;42.688;23.330;2022-10-16T11:57:09;4.60;;;1.92;;
46561;SDS011;32289;42.688;23.330;2022-10-16T12:00:59;4.00;;;2.25;;
46561;SDS011;32289;42.688;23.330;2022-10-16T12:09:03;10.90;;;2.20;;
46561;SDS011;32289;42.688;23.330;2022-10-16T12:12:44;3.60;;;1.65;;
46561;SDS011;32289;42.688;23.330;2022-10-16T12:16:26;3.60;;;1.95;;
46561;SDS011;32289;42.688;23.330;2022-10-16T12:23:55;2.67;;;1.48;;
46561;SDS011;32289;42.688;23.330;2022-10-16T12:27:38;4.80;;;1.50;;
46561;SDS011;32289;42.688;23.330;2022-10-16T12:31:19;3.60;;;1.77;;
46561;SDS011;32289;42.688;23.330;2022-10-16T12:35:00;2.83;;;1.75;;
46561;SDS011;32289;42.688;23.330;2022-10-16T12:38:52;12.57;;;6.03;;
46561;SDS011;32289;42.688;23.330;2022-10-16T12:42:34;5.22;;;3.00;;
46561;SDS011;32289;42.688;23.330;2022-10-16T12:49:55;3.58;;;1.80;;
46561;SDS011;32289;42.688;23.330;2022-10-16T12:53:37;2.55;;;1.55;;
46561;SDS011;32289;42.688;23.330;2022-10-16T13:12:45;3.90;;;1.95;;
46561;SDS011;32289;42.688;23.330;2022-10-16T13:16:50;4.15;;;1.95;;
46561;SDS011;32289;42.688;23.330;2022-10-16T13:24:54;5.15;;;1.35;;
46561;SDS011;32289;42.688;23.330;2022-10-16T13:28:58;3.33;;;1.60;;
46561;SDS011;32289;42.688;23.330;2022-10-16T13:32:43;5.18;;;1.90;;
46561;SDS011;32289;42.688;23.330;2022-10-16T13:36:27;2.35;;;1.30;;
46561;SDS011;32289;42.688;23.330;2022-10-16T13:40:28;3.05;;;1.45;;
46561;SDS011;32289;42.688;23.330;2022-10-16T13:44:14;3.40;;;2.00;;
46561;SDS011;32289;42.688;23.330;2022-10-16T13:48:02;6.05;;;2.22;;
46561;SDS011;32289;42.688;23.330;2022-10-16T13:51:53;5.72;;;1.88;;
46561;SDS011;32289;42.688;23.330;2022-10-16T13:55:39;2.72;;;1.58;;
46561;SDS011;32289;42.688;23.330;2022-10-16T13:59:24;2.10;;;0.98;;
46561;SDS011;32289;42.688;23.330;2022-10-16T14:03:13;3.72;;;1.52;;
46561;SDS011;32289;42.688;23.330;2022-10-16T14:06:56;4.32;;;1.40;;
46561;SDS011;32289;42.688;23.330;2022-10-16T14:10:37;2.28;;;1.23;;
46561;SDS011;32289;42.688;23.330;2022-10-16T14:14:19;3.55;;;1.90;;
46561;SDS011;32289;42.688;23.330;2022-10-16T14:18:00;2.60;;;1.52;;
46561;SDS011;32289;42.688;23.330;2022-10-16T14:21:41;3.05;;;1.40;;
46561;SDS011;32289;42.688;23.330;2022-10-16T14:25:24;5.80;;;1.83;;
46561;SDS011;32289;42.688;23.330;2022-10-16T14:29:12;3.55;;;1.75;;
46561;SDS011;32289;42.688;23.330;2022-10-16T14:32:55;3.10;;;1.48;;
46561;SDS011;32289;42.688;23.330;2022-10-16T14:36:40;3.08;;;1.50;;
46561;SDS011;32289;42.688;23.330;2022-10-16T14:40:23;3.83;;;1.48;;
46561;SDS011;32289;42.688;23.330;2022-10-16T14:44:05;2.38;;;1.23;;
46561;SDS011;32289;42.688;23.330;2022-10-16T14:47:47;2.95;;;1.52;;
46561;SDS011;32289;42.688;23.330;2022-10-16T14:51:34;3.05;;;1.40;;
46561;SDS011;32289;42.688;23.330;2022-10-16T14:55:16;6.38;;;3.38;;
46561;SDS011;32289;42.688;23.330;2022-10-16T14:58:57;6.30;;;2.63;;
46561;SDS011;32289;42.688;23.330;2022-10-16T15:02:39;3.47;;;1.83;;
46561;SDS011;32289;42.688;23.330;2022-10-16T15:06:20;3.80;;;1.80;;
46561;SDS011;32289;42.688;23.330;2022-10-16T15:10:02;6.55;;;2.25;;
46561;SDS011;32289;42.688;23.330;2022-10-16T15:13:42;8.68;;;3.65;;
46561;SDS011;32289;42.688;23.330;2022-10-16T15:17:23;3.85;;;1.90;;
46561;SDS011;32289;42.688;23.330;2022-10-16T15:21:04;6.35;;;1.90;;
46561;SDS011;32289;42.688;23.330;2022-10-16T15:24:45;4.50;;;1.90;;
46561;SDS011;32289;42.688;23.330;2022-10-16T15:28:26;3.47;;;1.65;;
46561;SDS011;32289;42.688;23.330;2022-10-16T15:32:08;4.07;;;1.77;;
46561;SDS011;32289;42.688;23.330;2022-10-16T15:35:50;2.95;;;1.88;;
46561;SDS011;32289;42.688;23.330;2022-10-16T15:39:31;4.22;;;2.03;;
46561;SDS011;32289;42.688;23.330;2022-10-16T15:43:12;7.72;;;2.10;;
46561;SDS011;32289;42.688;23.330;2022-10-16T15:46:54;7.80;;;2.17;;
46561;SDS011;32289;42.688;23.330;2022-10-16T15:50:34;5.10;;;2.67;;
46561;SDS011;32289;42.688;23.330;2022-10-16T15:54:18;3.55;;;1.58;;
46561;SDS011;32289;42.688;23.330;2022-10-16T15:58:01;5.68;;;2.05;;
46561;SDS011;32289;42.688;23.330;2022-10-16T16:01:42;13.68;;;5.50;;
46561;SDS011;32289;42.688;23.330;2022-10-16T16:05:23;8.85;;;4.30;;
46561;SDS011;32289;42.688;23.330;2022-10-16T16:09:03;6.07;;;3.00;;
46561;SDS011;32289;42.688;23.330;2022-10-16T16:12:45;12.07;;;5.43;;
46561;SDS011;32289;42.688;23.330;2022-10-16T16:16:31;11.25;;;5.30;;
46561;SDS011;32289;42.688;23.330;2022-10-16T16:20:16;9.70;;;3.92;;
46561;SDS011;32289;42.688;23.330;2022-10-16T16:23:57;7.90;;;2.40;;
46561;SDS011;32289;42.688;23.330;2022-10-16T16:27:38;9.63;;;3.80;;
46561;SDS011;32289;42.688;23.330;2022-10-16T16:31:19;14.00;;;5.78;;
46561;SDS011;32289;42.688;23.330;2022-10-16T16:35:00;16.17;;;4.50;;
46561;SDS011;32289;42.688;23.330;2022-10-16T16:38:42;17.98;;;6.40;;
46561;SDS011;32289;42.688;23.330;2022-10-16T16:42:22;15.93;;;6.95;;
46561;SDS011;32289;42.688;23.330;2022-10-16T16:46:04;12.88;;;7.30;;
46561;SDS011;32289;42.688;23.330;2022-10-16T16:49:44;10.57;;;4.55;;
46561;SDS011;32289;42.688;23.330;2022-10-16T16:53:26;11.48;;;4.65;;
46561;SDS011;32289;42.688;23.330;2022-10-16T16:57:07;15.70;;;7.78;;
46561;SDS011;32289;42.688;23.330;2022-10-16T17:00:48;14.90;;;5.25;;
46561;SDS011;32289;42.688;23.330;2022-10-16T17:04:28;9.90;;;3.80;;
46561;SDS011;32289;42.688;23.330;2022-10-16T17:08:09;16.00;;;6.55;;
46561;SDS011;32289;42.688;23.330;2022-10-16T17:11:50;23.52;;;6.13;;
46561;SDS011;32289;42.688;23.330;2022-10-16T17:15:30;10.88;;;5.25;;
46561;SDS011;32289;42.688;23.330;2022-10-16T17:19:12;52.97;;;19.65;;
46561;SDS011;32289;42.688;23.330;2022-10-16T17:22:54;30.58;;;12.80;;
46561;SDS011;32289;42.688;23.330;2022-10-16T17:26:35;10.68;;;5.43;;
46561;SDS011;32289;42.688;23.330;2022-10-16T17:30:17;14.02;;;5.47;;
46561;SDS011;32289;42.688;23.330;2022-10-16T17:33:58;7.70;;;3.55;;
46561;SDS011;32289;42.688;23.330;2022-10-16T17:37:40;8.75;;;4.35;;
46561;SDS011;32289;42.688;23.330;2022-10-16T17:41:21;11.05;;;3.85;;
46561;SDS011;32289;42.688;23.330;2022-10-16T17:45:03;7.30;;;3.17;;
46561;SDS011;32289;42.688;23.330;2022-10-16T17:48:45;8.30;;;3.05;;
46561;SDS011;32289;42.688;23.330;2022-10-16T17:52:27;8.93;;;3.53;;
46561;SDS011;32289;42.688;23.330;2022-10-16T17:56:09;15.55;;;5.47;;
46561;SDS011;32289;42.688;23.330;2022-10-16T17:59:55;10.07;;;3.80;;
46561;SDS011;32289;42.688;23.330;2022-10-16T18:03:36;11.93;;;6.13;;
46561;SDS011;32289;42.688;23.330;2022-10-16T18:07:17;9.65;;;4.45;;
46561;SDS011;32289;42.688;23.330;2022-10-16T18:10:58;8.98;;;4.25;;
46561;SDS011;32289;42.688;23.330;2022-10-16T18:14:38;9.02;;;3.92;;
46561;SDS011;32289;42.688;23.330;2022-10-16T18:18:19;6.28;;;3.35;;
46561;SDS011;32289;42.688;23.330;2022-10-16T18:22:00;8.95;;;3.95;;
46561;SDS011;32289;42.688;23.330;2022-10-16T18:25:48;8.85;;;4.15;;
46561;SDS011;32289;42.688;23.330;2022-10-16T18:29:29;6.00;;;3.22;;
46561;SDS011;32289;42.688;23.330;2022-10-16T18:33:10;7.50;;;4.10;;
46561;SDS011;32289;42.688;23.330;2022-10-16T18:36:51;11.10;;;3.45;;
46561;SDS011;32289;42.688;23.330;2022-10-16T18:40:34;7.22;;;3.20;;
46561;SDS011;32289;42.688;23.330;2022-10-16T18:44:15;9.23;;;3.63;;
46561;SDS011;32289;42.688;23.330;2022-10-16T18:47:56;9.27;;;3.42;;
46561;SDS011;32289;42.688;23.330;2022-10-16T18:51:37;8.90;;;4.05;;
46561;SDS011;32289;42.688;23.330;2022-10-16T18:55:19;6.13;;;3.78;;
46561;SDS011;32289;42.688;23.330;2022-10-16T18:59:01;9.02;;;3.58;;
46561;SDS011;32289;42.688;23.330;2022-10-16T19:02:43;7.20;;;3.17;;
46561;SDS011;32289;42.688;23.330;2022-10-16T19:06:24;14.52;;;5.75;;
46561;SDS011;32289;42.688;23.330;2022-10-16T19:10:06;19.67;;;8.35;;
46561;SDS011;32289;42.688;23.330;2022-10-16T19:13:47;10.57;;;4.80;;
46561;SDS011;32289;42.688;23.330;2022-10-16T19:17:28;12.82;;;5.32;;
46561;SDS011;32289;42.688;23.330;2022-10-16T19:21:11;15.00;;;7.20;;
46561;SDS011;32289;42.688;23.330;2022-10-16T19:24:53;13.57;;;6.57;;
46561;SDS011;32289;42.688;23.330;2022-10-16T19:28:34;18.08;;;6.50;;
46561;SDS011;32289;42.688;23.330;2022-10-16T19:32:16;18.02;;;5.25;;
46561;SDS011;32289;42.688;23.330;2022-10-16T19:36:06;17.65;;;4.85;;
46561;SDS011;32289;42.688;23.330;2022-10-16T19:39:48;13.43;;;5.88;;
46561;SDS011;32289;42.688;23.330;2022-10-16T19:43:28;14.88;;;6.65;;
46561;SDS011;32289;42.688;23.330;2022-10-16T19:47:09;13.20;;;5.72;;
46561;SDS011;32289;42.688;23.330;2022-10-16T19:50:50;13.23;;;6.13;;
46561;SDS011;32289;42.688;23.330;2022-10-16T19:54:30;11.43;;;5.47;;
46561;SDS011;32289;42.688;23.330;2022-10-16T19:58:12;9.48;;;5.18;;
46561;SDS011;32289;42.688;23.330;2022-10-16T20:01:53;9.20;;;4.38;;
46561;SDS011;32289;42.688;23.330;2022-10-16T20:05:33;10.48;;;5.15;;
46561;SDS011;32289;42.688;23.330;2022-10-16T20:09:14;13.10;;;4.20;;
46561;SDS011;32289;42.688;23.330;2022-10-16T20:12:55;9.95;;;4.35;;
46561;SDS011;32289;42.688;23.330;2022-10-16T20:16:35;9.13;;;3.88;;
46561;SDS011;32289;42.688;23.330;2022-10-16T20:20:16;11.32;;;3.72;;
46561;SDS011;32289;42.688;23.330;2022-10-16T20:23:58;10.52;;;3.97;;
46561;SDS011;32289;42.688;23.330;2022-10-16T20:27:39;9.13;;;3.92;;
46561;SDS011;32289;42.688;23.330;2022-10-16T20:31:22;9.27;;;3.45;;
46561;SDS011;32289;42.688;23.330;2022-10-16T20:35:04;6.32;;;3.97;;
46561;SDS011;32289;42.688;23.330;2022-10-16T20:38:46;7.80;;;3.28;;
46561;SDS011;32289;42.688;23.330;2022-10-16T20:42:27;4.47;;;3.05;;
46561;SDS011;32289;42.688;23.330;2022-10-16T20:46:09;7.97;;;3.28;;
46561;SDS011;32289;42.688;23.330;2022-10-16T20:49:54;6.20;;;3.00;;
46561;SDS011;32289;42.688;23.330;2022-10-16T20:53:34;6.57;;;2.92;;
46561;SDS011;32289;42.688;23.330;2022-10-16T20:57:15;4.88;;;3.30;;
46561;SDS011;32289;42.688;23.330;2022-10-16T21:01:03;5.20;;;2.80;;
46561;SDS011;32289;42.688;23.330;2022-10-16T21:04:46;5.40;;;2.70;;
46561;SDS011;32289;42.688;23.330;2022-10-16T21:08:27;7.05;;;3.05;;
46561;SDS011;32289;42.688;23.330;2022-10-16T21:12:07;20.98;;;4.90;;
46561;SDS011;32289;42.688;23.330;2022-10-16T21:15:49;7.65;;;4.38;;
46561;SDS011;32289;42.688;23.330;2022-10-16T21:19:30;10.75;;;4.47;;
46561;SDS011;32289;42.688;23.330;2022-10-16T21:23:11;9.68;;;3.45;;
46561;SDS011;32289;42.688;23.330;2022-10-16T21:26:52;8.80;;;4.28;;
46561;SDS011;32289;42.688;23.330;2022-10-16T21:30:32;8.07;;;3.95;;
46561;SDS011;32289;42.688;23.330;2022-10-16T21:34:13;12.82;;;3.92;;
46561;SDS011;32289;42.688;23.330;2022-10-16T21:37:54;12.05;;;5.00;;
46561;SDS011;32289;42.688;23.330;2022-10-16T21:41:35;9.82;;;4.90;;
46561;SDS011;32289;42.688;23.330;2022-10-16T21:45:16;7.40;;;3.75;;
46561;SDS011;32289;42.688;23.330;2022-10-16T21:48:57;8.32;;;4.45;;
46561;SDS011;32289;42.688;23.330;2022-10-16T21:52:39;11.95;;;4.35;;
46561;SDS011;32289;42.688;23.330;2022-10-16T21:56:21;8.32;;;4.40;;
46561;SDS011;32289;42.688;23.330;2022-10-16T22:00:02;11.93;;;4.68;;
46561;SDS011;32289;42.688;23.330;2022-10-16T22:03:44;12.73;;;5.32;;
46561;SDS011;32289;42.688;23.330;2022-10-16T22:07:26;10.35;;;4.70;;
46561;SDS011;32289;42.688;23.330;2022-10-16T22:11:11;10.68;;;5.45;;
46561;SDS011;32289;42.688;23.330;2022-10-16T22:14:53;11.45;;;5.18;;
46561;SDS011;32289;42.688;23.330;2022-10-16T22:18:34;15.45;;;5.18;;
46561;SDS011;32289;42.688;23.330;2022-10-16T22:22:16;10.02;;;4.85;;
46561;SDS011;32289;42.688;23.330;2022-10-16T22:26:04;11.52;;;4.78;;
46561;SDS011;32289;42.688;23.330;2022-10-16T22:29:49;12.07;;;5.22;;
46561;SDS011;32289;42.688;23.330;2022-10-16T22:33:31;10.32;;;5.28;;
46561;SDS011;32289;42.688;23.330;2022-10-16T22:37:11;10.15;;;5.35;;
46561;SDS011;32289;42.688;23.330;2022-10-16T22:40:52;11.65;;;5.32;;
46561;SDS011;32289;42.688;23.330;2022-10-16T22:44:33;9.93;;;5.57;;
46561;SDS011;32289;42.688;23.330;2022-10-16T22:48:13;12.45;;;5.97;;
46561;SDS011;32289;42.688;23.330;2022-10-16T22:51:54;11.43;;;6.57;;
46561;SDS011;32289;42.688;23.330;2022-10-16T22:55:35;19.25;;;6.57;;
46561;SDS011;32289;42.688;23.330;2022-10-16T22:59:15;10.90;;;5.70;;
46561;SDS011;32289;42.688;23.330;2022-10-16T23:02:56;15.23;;;6.55;;
46561;SDS011;32289;42.688;23.330;2022-10-16T23:06:37;11.88;;;5.38;;
46561;SDS011;32289;42.688;23.330;2022-10-16T23:10:18;12.10;;;5.20;;
46561;SDS011;32289;42.688;23.330;2022-10-16T23:13:58;14.55;;;5.88;;
46561;SDS011;32289;42.688;23.330;2022-10-16T23:17:40;9.35;;;5.70;;
46561;SDS011;32289;42.688;23.330;2022-10-16T23:21:22;12.07;;;5.43;;
46561;SDS011;32289;42.688;23.330;2022-10-16T23:25:04;17.27;;;6.43;;
46561;SDS011;32289;42.688;23.330;2022-10-16T23:28:45;14.43;;;6.25;;
46561;SDS011;32289;42.688;23.330;2022-10-16T23:32:26;13.65;;;5.72;;